createdAt,value
2019-01-11T00:02:45.871Z,100774.27
2019-01-11T00:05:16.231Z,100766.11
2019-01-11T00:08:05.160Z,100768.45
2019-01-11T00:10:54.725Z,100766.55
2019-01-11T00:13:25.050Z,100773.34
2019-01-11T00:15:55.300Z,100775.92
2019-01-11T00:18:44.556Z,100776.02
2019-01-11T00:21:14.745Z,100772.89
2019-01-11T00:24:03.685Z,100776.25
2019-01-11T00:26:52.990Z,100777.34
2019-01-11T00:29:23.212Z,100771.21
2019-01-11T00:31:53.531Z,100775.10
2019-01-11T00:34:23.919Z,100765.30
2019-01-11T00:36:54.180Z,100767.18
2019-01-11T00:39:43.397Z,100765.20
2019-01-11T00:42:13.676Z,100763.44
2019-01-11T00:44:43.907Z,100759.02
2019-01-11T00:47:33.206Z,100752.08
2019-01-11T00:50:22.164Z,100747.06
2019-01-11T00:53:12.472Z,100747.06
2019-01-11T00:55:44.479Z,100748.30
2019-01-11T00:58:15.691Z,100748.09
2019-01-11T01:00:47.822Z,100741.77
2019-01-11T01:03:18.960Z,100744.75
2019-01-11T01:08:50.157Z,100741.87
2019-01-11T01:11:20.493Z,100742.73
2019-01-11T01:13:50.824Z,100749.69
2019-01-11T01:16:21.441Z,100747.11
2019-01-11T01:18:53.482Z,100755.02
2019-01-11T01:21:23.816Z,100746.02
2019-01-11T01:23:55.913Z,100744.00
2019-01-11T01:29:35.917Z,100741.43
2019-01-11T01:32:06.305Z,100728.55
2019-01-11T01:41:03.942Z,100730.33
2019-01-11T01:43:44.542Z,100733.59
2019-01-11T01:46:33.786Z,100728.30
2019-01-11T01:49:04.064Z,100727.70
2019-01-11T01:51:36.354Z,100736.49
2019-01-11T01:54:25.610Z,100737.11
2019-01-11T01:56:55.863Z,100730.61
2019-01-11T01:59:26.104Z,100727.50
2019-01-11T02:02:18.122Z,100726.04
2019-01-11T02:04:49.352Z,100729.16
2019-01-11T02:07:19.697Z,100728.69
2019-01-11T02:16:24.392Z,100725.69
2019-01-11T02:22:29.669Z,100732.05
2019-01-11T02:25:00.321Z,100727.95
2019-01-11T02:27:49.923Z,100724.66
2019-01-11T02:33:48.056Z,100720.41
2019-01-11T02:36:06.091Z,100729.47
2019-01-11T02:38:59.684Z,100716.23
2019-01-11T02:44:37.952Z,100716.00
2019-01-11T02:47:08.265Z,100715.88
2019-01-11T02:50:03.440Z,100717.20
2019-01-11T02:52:39.656Z,100705.13
2019-01-11T02:55:29.662Z,100701.84
2019-01-11T02:58:02.143Z,100705.37
2019-01-11T03:00:51.396Z,100704.10
2019-01-11T03:03:42.949Z,100714.55
2019-01-11T03:06:32.305Z,100703.33
2019-01-11T03:12:02.377Z,100699.41
2019-01-11T03:14:32.668Z,100693.14
2019-01-11T03:17:26.927Z,100688.78
2019-01-11T03:23:32.240Z,100690.95
2019-01-11T03:25:53.863Z,100690.50
2019-01-11T03:28:24.108Z,100690.63
2019-01-11T03:34:15.682Z,100679.81
2019-01-11T03:37:05.069Z,100680.04
2019-01-11T03:40:08.288Z,100679.94
2019-01-11T03:43:08.856Z,100686.31
2019-01-11T03:46:09.598Z,100681.63
2019-01-11T03:48:58.884Z,100682.81
2019-01-11T03:51:48.253Z,100680.06
2019-01-11T03:54:38.989Z,100682.34
2019-01-11T04:00:49.283Z,100683.64
2019-01-11T04:06:33.585Z,100686.28
2019-01-11T04:09:22.817Z,100681.45
2019-01-11T04:15:17.937Z,100683.78
2019-01-11T04:18:26.242Z,100689.16
2019-01-11T04:27:02.763Z,100672.33
2019-01-11T04:29:33.046Z,100679.27
2019-01-11T04:32:03.333Z,100680.02
2019-01-11T04:35:12.818Z,100683.53
2019-01-11T04:38:02.128Z,100677.77
2019-01-11T04:40:51.360Z,100679.80
2019-01-11T04:43:40.610Z,100685.34
2019-01-11T04:46:21.411Z,100683.06
2019-01-11T04:49:27.896Z,100679.16
2019-01-11T04:51:50.413Z,100676.11
2019-01-11T04:55:00.452Z,100676.75
2019-01-11T04:57:52.243Z,100676.23
2019-01-11T05:00:41.559Z,100678.39
2019-01-11T05:03:11.884Z,100674.81
2019-01-11T05:06:01.151Z,100669.20
2019-01-11T05:08:31.412Z,100680.28
2019-01-11T05:13:46.049Z,100674.80
2019-01-11T05:16:16.289Z,100677.14
2019-01-11T05:19:06.334Z,100664.67
2019-01-11T05:21:55.999Z,100666.05
2019-01-11T05:27:25.853Z,100651.48
2019-01-11T05:29:56.214Z,100671.72
2019-01-11T05:32:26.504Z,100668.76
2019-01-11T05:35:15.831Z,100665.02
2019-01-11T05:37:46.238Z,100665.16
2019-01-11T05:40:20.806Z,100659.95
2019-01-11T05:42:51.034Z,100656.18
2019-01-11T05:45:24.328Z,100656.39
2019-01-11T05:47:54.877Z,100655.03
2019-01-11T05:50:25.134Z,100647.88
2019-01-11T05:53:14.104Z,100651.44
2019-01-11T05:59:07.644Z,100642.95
2019-01-11T06:01:56.935Z,100641.84
2019-01-11T06:04:45.945Z,100640.49
2019-01-11T06:07:54.158Z,100642.89
2019-01-11T06:10:43.922Z,100644.05
2019-01-11T06:13:33.244Z,100639.32
2019-01-11T06:16:03.569Z,100633.99
2019-01-11T06:18:33.875Z,100636.67
2019-01-11T06:21:24.026Z,100629.70
2019-01-11T06:23:55.123Z,100623.17
2019-01-11T06:26:26.195Z,100620.45
2019-01-11T06:29:16.216Z,100620.45
2019-01-11T06:31:47.339Z,100622.79
2019-01-11T06:34:17.645Z,100621.80
2019-01-11T06:37:07.089Z,100613.54
2019-01-11T06:40:15.060Z,100618.19
2019-01-11T06:42:45.699Z,100610.28
2019-01-11T06:48:48.436Z,100620.67
2019-01-11T06:51:18.930Z,100612.63
2019-01-11T06:53:49.267Z,100633.19
2019-01-11T06:56:21.141Z,100607.23
2019-01-11T06:58:52.178Z,100609.69
2019-01-11T07:01:23.306Z,100612.75
2019-01-11T07:03:53.577Z,100617.69
2019-01-11T07:06:24.608Z,100622.33
2019-01-11T07:08:55.699Z,100615.66
2019-01-11T07:14:29.585Z,100615.16
2019-01-11T07:16:59.925Z,100607.71
2019-01-11T07:19:49.230Z,100608.50
2019-01-11T07:22:19.590Z,100600.02
2019-01-11T07:24:53.395Z,100604.06
2019-01-11T07:27:38.573Z,100602.58
2019-01-11T07:29:55.728Z,100594.61
2019-01-11T07:32:47.371Z,100606.14
2019-01-11T07:35:50.327Z,100590.63
2019-01-11T07:38:20.761Z,100605.58
2019-01-11T07:40:51.387Z,100609.58
2019-01-11T07:43:41.065Z,100614.02
2019-01-11T07:46:11.689Z,100614.02
2019-01-11T07:49:23.273Z,100606.52
2019-01-11T07:52:13.636Z,100606.52
2019-01-11T07:54:43.973Z,100607.41
2019-01-11T07:57:32.944Z,100604.22
2019-01-11T08:00:03.338Z,100595.02
2019-01-11T08:02:49.053Z,100581.52
2019-01-11T08:05:25.509Z,100581.52
2019-01-11T08:08:15.552Z,100575.28
2019-01-11T08:10:45.880Z,100575.28
2019-01-11T08:16:26.623Z,100597.72
2019-01-11T08:19:15.926Z,100600.84
2019-01-11T08:22:04.993Z,100590.81
2019-01-11T08:27:47.831Z,100587.04
2019-01-11T08:36:08.707Z,100589.87
2019-01-11T08:38:57.974Z,100592.95
2019-01-11T08:41:47.324Z,100593.09
2019-01-11T08:44:17.683Z,100587.34
2019-01-11T08:46:47.965Z,100581.91
2019-01-11T08:49:37.379Z,100578.34
2019-01-11T08:52:29.132Z,100558.48
2019-01-11T08:54:59.487Z,100586.48
2019-01-11T08:57:29.800Z,100573.90
2019-01-11T09:00:19.033Z,100562.95
2019-01-11T09:02:49.349Z,100590.83
2019-01-11T09:05:19.686Z,100579.47
2019-01-11T09:26:12.055Z,100586.41
2019-01-11T09:28:46.568Z,100588.91
2019-01-11T09:31:27.745Z,100583.25
2019-01-11T09:34:08.700Z,100584.38
2019-01-11T09:36:45.790Z,100583.20
2019-01-11T09:39:27.801Z,100588.73
2019-01-11T09:42:14.913Z,100589.61
2019-01-11T09:44:45.220Z,100590.77
2019-01-11T09:47:16.040Z,100599.93
2019-01-11T09:49:46.394Z,100599.80
2019-01-11T09:52:19.986Z,100588.27
2019-01-11T09:54:50.339Z,100593.81
2019-01-11T09:57:21.431Z,100597.31
2019-01-11T09:59:51.797Z,100599.81
2019-01-11T10:02:39.562Z,100590.31
2019-01-11T10:05:17.411Z,100580.10
2019-01-11T10:07:48.027Z,100585.17
2019-01-11T10:10:18.299Z,100584.45
2019-01-11T10:12:49.341Z,100580.72
2019-01-11T10:15:31.243Z,100576.06
2019-01-11T10:18:05.158Z,100581.20
2019-01-11T10:20:36.420Z,100589.14
2019-01-11T10:23:08.789Z,100593.32
2019-01-11T10:25:43.522Z,100586.09
2019-01-11T10:28:36.294Z,100579.41
2019-01-11T10:31:06.742Z,100572.20
2019-01-11T10:33:37.900Z,100570.48
2019-01-11T10:36:08.284Z,100567.84
2019-01-11T10:38:40.854Z,100569.16
2019-01-11T10:41:11.140Z,100564.84
2019-01-11T10:43:42.238Z,100570.02
2019-01-11T10:46:33.554Z,100567.89
2019-01-11T10:49:04.180Z,100563.42
2019-01-11T10:51:35.715Z,100555.53
2019-01-11T10:54:07.673Z,100551.98
2019-01-11T10:56:41.540Z,100558.83
2019-01-11T10:59:14.640Z,100561.01
2019-01-11T11:01:44.956Z,100550.70
2019-01-11T11:04:15.599Z,100541.55
2019-01-11T11:06:46.171Z,100540.98
2019-01-11T11:09:16.519Z,100531.69
2019-01-11T11:11:49.826Z,100517.05
2019-01-11T11:14:20.407Z,100516.44
2019-01-11T11:16:53.148Z,100511.75
2019-01-11T11:19:26.362Z,100517.98
2019-01-11T11:22:00.830Z,100517.75
2019-01-11T11:24:34.496Z,100519.31
2019-01-11T11:27:04.764Z,100523.99
2019-01-11T11:29:37.753Z,100523.89
2019-01-11T11:32:08.183Z,100518.84
2019-01-11T11:34:40.156Z,100520.62
2019-01-11T11:37:13.448Z,100513.17
2019-01-11T11:39:48.676Z,100514.85
2019-01-11T11:42:18.968Z,100507.21
2019-01-11T11:44:49.293Z,100502.13
2019-01-11T11:47:19.694Z,100505.25
2019-01-11T11:49:50.377Z,100498.77
2019-01-11T11:52:20.716Z,100491.08
2019-01-11T11:54:54.967Z,100497.55
2019-01-11T11:57:25.339Z,100496.73
2019-01-11T11:59:57.081Z,100501.05
2019-01-11T12:02:29.891Z,100503.91
2019-01-11T12:04:59.963Z,100496.12
2019-01-11T12:07:30.393Z,100496.59
2019-01-11T12:10:01.499Z,100482.66
2019-01-11T12:12:32.609Z,100483.75
2019-01-11T12:15:06.094Z,100482.42
2019-01-11T12:17:44.315Z,100483.72
2019-01-11T12:20:32.573Z,100479.77
2019-01-11T12:23:02.967Z,100475.77
2019-01-11T12:25:33.641Z,100474.85
2019-01-11T12:28:04.185Z,100472.20
2019-01-11T12:30:37.220Z,100464.13
2019-01-11T12:33:08.718Z,100469.17
2019-01-11T12:35:38.988Z,100463.66
2019-01-11T12:38:13.781Z,100454.37
2019-01-11T12:40:43.412Z,100455.95
2019-01-11T12:43:24.366Z,100456.88
2019-01-11T12:45:55.221Z,100454.49
2019-01-11T12:48:31.236Z,100444.92
2019-01-11T12:51:02.895Z,100459.09
2019-01-11T12:53:34.138Z,100449.13
2019-01-11T12:56:07.550Z,100449.13
2019-01-11T12:59:05.908Z,100447.91
2019-01-11T13:01:43.564Z,100448.28
2019-01-11T13:04:22.331Z,100433.09
2019-01-11T13:06:54.501Z,100436.47
2019-01-11T13:09:24.906Z,100422.51
2019-01-11T13:11:58.851Z,100418.23
2019-01-11T13:14:33.319Z,100433.94
2019-01-11T13:17:03.799Z,100435.84
2019-01-11T13:19:35.451Z,100431.16
2019-01-11T13:22:08.031Z,100432.95
2019-01-11T13:24:41.713Z,100417.57
2019-01-11T13:27:11.542Z,100415.21
2019-01-11T13:29:42.586Z,100416.97
2019-01-11T13:32:15.114Z,100418.05
2019-01-11T13:34:53.192Z,100402.56
2019-01-11T13:37:28.182Z,100415.30
2019-01-11T13:40:01.141Z,100414.84
2019-01-11T13:42:32.195Z,100419.16
2019-01-11T13:45:02.506Z,100421.56
2019-01-11T13:47:38.275Z,100414.43
2019-01-11T13:50:17.827Z,100418.16
2019-01-11T13:52:52.248Z,100434.14
2019-01-11T13:55:28.015Z,100439.67
2019-01-11T13:57:59.447Z,100443.26
2019-01-11T14:00:29.823Z,100440.63
2019-01-11T14:03:02.338Z,100435.42
2019-01-11T14:05:35.892Z,100439.77
2019-01-11T14:08:07.246Z,100434.29
2019-01-11T14:10:40.595Z,100421.41
2019-01-11T14:13:11.216Z,100421.23
2019-01-11T14:15:42.317Z,100422.97
2019-01-11T14:18:12.759Z,100425.37
2019-01-11T14:20:45.541Z,100431.72
2019-01-11T14:23:15.956Z,100447.23
2019-01-11T14:25:47.514Z,100437.05
2019-01-11T14:28:17.936Z,100435.45
2019-01-11T14:30:48.284Z,100441.73
2019-01-11T14:33:18.773Z,100441.62
2019-01-11T14:35:49.162Z,100430.53
2019-01-11T14:38:19.523Z,100427.33
2019-01-11T14:40:50.637Z,100434.77
2019-01-11T14:43:21.083Z,100423.09
2019-01-11T14:45:52.161Z,100423.19
2019-01-11T14:48:24.328Z,100428.98
2019-01-11T14:50:56.209Z,100424.01
2019-01-11T14:53:26.529Z,100424.27
2019-01-11T14:55:59.807Z,100417.52
2019-01-11T14:58:31.497Z,100428.88
2019-01-11T15:01:02.162Z,100428.91
2019-01-11T15:03:33.231Z,100435.38
2019-01-11T15:06:03.601Z,100430.33
2019-01-11T15:08:37.706Z,100424.11
2019-01-11T15:11:10.792Z,100423.05
2019-01-11T15:13:43.709Z,100423.25
2019-01-11T15:16:13.990Z,100423.86
2019-01-11T15:18:49.490Z,100417.13
2019-01-11T15:21:21.386Z,100418.31
2019-01-11T15:23:55.343Z,100423.84
2019-01-11T15:26:27.700Z,100415.06
2019-01-11T15:29:01.158Z,100411.78
2019-01-11T15:31:32.527Z,100409.70
2019-01-11T15:34:02.810Z,100403.18
2019-01-11T15:36:39.176Z,100407.95
2019-01-11T15:39:11.063Z,100406.63
2019-01-11T15:41:42.756Z,100408.77
2019-01-11T15:44:14.529Z,100404.40
2019-01-11T15:46:47.521Z,100404.31
2019-01-11T15:49:18.193Z,100406.37
2019-01-11T15:51:48.506Z,100385.52
2019-01-11T15:54:19.194Z,100406.20
2019-01-11T15:56:49.587Z,100420.77
2019-01-11T15:59:19.872Z,100404.41
2019-01-11T16:01:58.767Z,100402.81
2019-01-11T16:04:43.211Z,100394.56
2019-01-11T16:07:17.079Z,100404.08
2019-01-11T16:10:01.243Z,100411.20
2019-01-11T16:13:02.553Z,100405.30
2019-01-11T16:16:05.873Z,100412.73
2019-01-11T16:18:36.715Z,100395.27
2019-01-11T16:21:13.795Z,100406.23
2019-01-11T16:23:44.237Z,100400.09
2019-01-11T16:26:14.529Z,100408.06
2019-01-11T16:28:55.418Z,100406.37
2019-01-11T16:33:52.092Z,100401.52
2019-01-11T16:36:23.770Z,100402.77
2019-01-11T16:38:54.897Z,100402.79
2019-01-11T16:41:25.248Z,100402.79
2019-01-11T16:43:55.618Z,100394.05
2019-01-11T16:46:27.599Z,100390.84
2019-01-11T16:48:58.407Z,100388.92
2019-01-11T16:51:28.778Z,100387.16
2019-01-11T16:54:01.599Z,100396.17
2019-01-11T16:56:31.903Z,100395.33
2019-01-11T16:59:05.489Z,100393.30
2019-01-11T17:01:38.863Z,100399.19
2019-01-11T17:04:09.156Z,100395.07
2019-01-11T17:06:40.857Z,100390.72
2019-01-11T17:09:11.219Z,100393.10
2019-01-11T17:11:42.898Z,100400.47
2019-01-11T17:14:16.644Z,100398.66
2019-01-11T17:16:49.346Z,100394.58
2019-01-11T17:19:21.525Z,100393.37
2019-01-11T17:21:51.887Z,100393.56
2019-01-11T17:24:27.211Z,100394.16
2019-01-11T17:26:57.778Z,100400.80
2019-01-11T17:29:28.273Z,100397.46
2019-01-11T17:31:59.407Z,100391.78
2019-01-11T17:34:30.197Z,100390.61
2019-01-11T17:37:07.585Z,100391.62
2019-01-11T17:39:38.181Z,100397.61
2019-01-11T17:42:12.046Z,100396.14
2019-01-11T17:44:46.880Z,100405.62
2019-01-11T17:47:17.596Z,100399.14
2019-01-11T17:49:47.923Z,100394.16
2019-01-11T17:52:19.102Z,100400.33
2019-01-11T17:54:49.785Z,100397.16
2019-01-11T17:57:21.627Z,100399.33
2019-01-11T17:59:52.055Z,100399.33
2019-01-11T18:02:25.779Z,100399.84
2019-01-11T18:04:56.082Z,100405.88
2019-01-11T18:07:29.730Z,100406.43
2019-01-11T18:10:03.158Z,100410.66
2019-01-11T18:12:36.311Z,100407.03
2019-01-11T18:15:11.652Z,100398.02
2019-01-11T18:17:43.261Z,100411.19
2019-01-11T18:20:18.928Z,100403.50
2019-01-11T18:22:49.330Z,100402.06
2019-01-11T18:25:28.464Z,100402.62
2019-01-11T18:28:01.560Z,100402.25
2019-01-11T18:30:34.565Z,100408.50
2019-01-11T18:33:06.097Z,100393.23
2019-01-11T18:35:36.606Z,100369.41
2019-01-11T18:38:10.005Z,100396.31
2019-01-11T18:40:41.747Z,100403.22
2019-01-11T18:43:15.644Z,100391.81
2019-01-11T18:45:46.017Z,100407.58
2019-01-11T18:48:16.986Z,100401.33
2019-01-11T18:50:52.267Z,100401.12
2019-01-11T18:53:25.096Z,100398.17
2019-01-11T18:56:05.508Z,100391.08
2019-01-11T18:58:35.562Z,100389.27
2019-01-11T19:01:05.897Z,100395.64
2019-01-11T19:03:37.185Z,100390.39
2019-01-11T19:06:07.848Z,100393.70
2019-01-11T19:08:38.237Z,100397.61
2019-01-11T19:11:08.568Z,100385.25
2019-01-11T19:13:41.913Z,100388.89
2019-01-11T19:16:19.369Z,100383.97
2019-01-11T19:18:52.574Z,100382.66
2019-01-11T19:21:23.482Z,100376.84
2019-01-11T19:24:00.811Z,100381.75
2019-01-11T19:26:32.811Z,100391.58
2019-01-11T19:29:03.391Z,100392.63
2019-01-11T19:31:38.428Z,100380.68
2019-01-11T19:34:08.955Z,100381.27
2019-01-11T19:36:39.529Z,100373.95
2019-01-11T19:39:16.293Z,100376.37
2019-01-11T19:41:46.885Z,100373.41
2019-01-11T19:44:17.148Z,100380.80
2019-01-11T19:46:50.293Z,100382.66
2019-01-11T19:49:26.864Z,100385.91
2019-01-11T19:51:57.315Z,100392.97
2019-01-11T19:54:27.678Z,100404.89
2019-01-11T19:56:58.820Z,100400.63
2019-01-11T19:59:34.642Z,100400.63
2019-01-11T20:02:11.160Z,100395.03
2019-01-11T20:04:37.021Z,100400.92
2019-01-11T20:07:07.454Z,100372.73
2019-01-11T20:09:44.909Z,100375.68
2019-01-11T20:12:15.297Z,100386.33
2019-01-11T20:14:46.832Z,100390.76
2019-01-11T20:17:17.107Z,100385.13
2019-01-11T20:19:47.494Z,100388.06
2019-01-11T20:22:17.964Z,100392.82
2019-01-11T20:24:49.090Z,100395.07
2019-01-11T20:27:21.800Z,100398.61
2019-01-11T20:29:55.697Z,100395.83
2019-01-11T20:32:27.495Z,100399.73
2019-01-11T20:34:58.691Z,100398.56
2019-01-11T20:37:30.452Z,100398.56
2019-01-11T20:40:00.867Z,100398.82
2019-01-11T20:42:32.113Z,100393.53
2019-01-11T20:45:02.928Z,100401.80
2019-01-11T20:47:34.047Z,100400.84
2019-01-11T20:50:08.355Z,100400.92
2019-01-11T20:52:38.718Z,100407.84
2019-01-11T20:55:10.177Z,100400.14
2019-01-11T20:57:42.309Z,100396.54
2019-01-11T21:00:35.447Z,100398.02
2019-01-11T21:03:09.616Z,100397.54
2019-01-11T21:05:40.038Z,100399.08
2019-01-11T21:08:10.662Z,100392.45
2019-01-11T21:10:42.667Z,100381.75
2019-01-11T21:13:13.047Z,100373.88
2019-01-11T21:15:45.094Z,100396.45
2019-01-11T21:18:15.407Z,100400.88
2019-01-11T21:20:45.803Z,100391.78
2019-01-11T21:23:16.492Z,100378.17
2019-01-11T21:25:49.661Z,100389.92
2019-01-11T21:28:22.982Z,100350.88
2019-01-11T21:30:57.406Z,100396.12
2019-01-11T21:33:29.381Z,100389.26
2019-01-11T21:35:59.751Z,100391.91
2019-01-11T21:38:30.896Z,100409.56
2019-01-11T21:41:03.524Z,100405.92
2019-01-11T21:43:34.791Z,100402.44
2019-01-11T21:46:07.423Z,100412.40
2019-01-11T21:48:38.142Z,100403.55
2019-01-11T21:51:08.604Z,100405.38
2019-01-11T21:53:40.878Z,100402.39
2019-01-11T21:56:11.550Z,100398.96
2019-01-11T21:58:41.967Z,100404.62
2019-01-11T22:01:12.340Z,100398.91
2019-01-11T22:03:45.273Z,100398.05
2019-01-11T22:06:18.716Z,100400.84
2019-01-11T22:09:50.516Z,100405.38
2019-01-11T22:12:23.234Z,100397.50
2019-01-11T22:15:01.706Z,100400.14
2019-01-11T22:17:32.049Z,100386.73
2019-01-11T22:20:03.317Z,100400.48
2019-01-11T22:22:34.019Z,100389.27
2019-01-11T22:25:05.607Z,100396.08
2019-01-11T22:27:38.733Z,100412.19
2019-01-11T22:30:30.516Z,100394.44
2019-01-11T22:33:00.600Z,100402.48
2019-01-11T22:35:31.267Z,100406.59
2019-01-11T22:38:01.543Z,100415.77
2019-01-11T22:40:34.710Z,100406.05
2019-01-11T22:43:05.186Z,100412.90
2019-01-11T22:45:44.353Z,100403.77
2019-01-11T22:48:17.929Z,100411.41
2019-01-11T22:50:51.459Z,100410.06
2019-01-11T22:53:21.988Z,100414.52
2019-01-11T22:55:54.609Z,100414.70
2019-01-11T22:58:28.571Z,100419.75
2019-01-11T23:01:24.850Z,100411.02
2019-01-11T23:03:56.163Z,100413.30
2019-01-11T23:07:24.252Z,100416.01
2019-01-11T23:10:24.665Z,100407.89
2019-01-11T23:13:03.148Z,100412.23
2019-01-11T23:15:37.093Z,100406.77
2019-01-11T23:18:15.350Z,100418.23
2019-01-11T23:20:50.342Z,100407.27
2019-01-11T23:23:21.432Z,100412.79
2019-01-11T23:25:51.745Z,100407.10
2019-01-11T23:28:22.520Z,100412.28
2019-01-11T23:30:53.213Z,100417.41
2019-01-11T23:33:23.588Z,100416.17
2019-01-11T23:35:54.169Z,100419.42
2019-01-11T23:38:24.571Z,100421.78
2019-01-11T23:40:55.213Z,100417.41
2019-01-11T23:43:27.264Z,100421.28
2019-01-11T23:46:07.479Z,100419.08
2019-01-11T23:48:38.058Z,100423.47
2019-01-11T23:51:11.988Z,100392.34
2019-01-11T23:53:46.160Z,100408.09
2019-01-11T23:56:18.759Z,100405.02
2019-01-11T23:58:49.499Z,100411.33
